UKOO/ODS METAR and TAF weather

Enter ICAO airport designator
Station Type Date Time Source
UKOO METAR 2021/05/15 01:00 UTC NOAA

UKOO 150100Z 21003MPS CAVOK 13/12 Q1010 R16/090060 NOSIG


Station Type Date Time Source
UKOO Decoded METAR 2021/05/15 01:00 UTC NOAA

Odesa, Ukraine (UKOO) 46-26N 030-46E 42M
May 14, 2021 - 09:00 PM EDT / 2021.05.15 0100 UTC
Wind: from the SSW (210 degrees) at 7 MPH (6 KT):0
Visibility: greater than 7 mile(s):0
Temperature: 55 F (13 C)
Dew Point: 53 F (12 C)
Relative Humidity: 93%
Pressure (altimeter): 29.83 in. Hg (1010 hPa)
ob: UKOO 150100Z 21003MPS CAVOK 13/12 Q1010 R16/090060 NOSIG
cycle: 1

Station Type Date Time Source
UKOO TAF 2021/05/14 18:18 UTC NOAA

TAF TAF UKOO 141712Z 1418/1518 20006G12MPS 2100 BR SCT004 BKN007 SCT020CB PROB40
TEMPO 1418/1424 VRB09G16MPS 1000 TSRA
BECMG 1506/1507 6000 NSW

Example: see airport list